메인 페이지
METAR-TAF:

METAR-TAF

공항 :

멜버른 공항

멜버른, 오스트레일리아

위도: 37-40-24S, 경도: 144-50-36E, 고도: 132m

현재 날씨관측

예보는 16분 전, 05:30시(UTC)에 발표되었습니다.
9kt
온도 15°C
습도 59%
기압 1024 hPa
시정 10km 이상
고도 3500ft 상공 구름 보통
고도 5500ft 상공 구름 많음

METAR: YMML 250530Z 19009KT 9999 SCT035 BKN055 15/07 Q1024 RF00.0/000.0

시각: 15:46 (05:46 UTC)

예보

예보는 3 시간 32분 전, 02:14시(UTC)에 발표되었습니다.
예보 대상 시간: 25일 03시부터 26일 06시까지 (UTC)
남서14kt
시정 10km 이상
고도 4000ft 상공 구름 많음
약한소나기
25일 0800시부터 (UTC)
남서8kt
시정 10km 이상
고도 4000ft 상공 구름 많음
25일 1800시부터 (UTC)
남서6kt
시정 10km 이상
고도 2000ft 상공 구름 보통
고도 3000ft 상공 구름 많음

TAF: YMML 250214Z 2503/2606 22014KT 9999 -SHRA BKN040 FM250800 23008KT 9999 NSW BKN040 FM251800 22006KT 9999 SCT020 BKN030

4,000개 이상의 공항 관측 자료 및 예보 (METAR 및 TAF 보고).

지도상에서 검색 가능한 기상관측소가 노란 점과 빨간 점으로 표시되어 있습니다.

기상관측소 명을 보려면 표시 위로 마우스를 이동하세요.

날씨 관측과 예보를 보려면 클릭하세요.

지도 변경 : 확대하려면 엑스 표시가 있는 녹색 버튼, 축소하려면 빼기 표시가 있는 녹색 버튼, 다음 페이지의 지도를 보려면 녹색 화살표를 클릭하세요.


METAR-TAF: